Map

Track Data

SID SEASON NUMBER BASIN SUBBASIN NAME ISO_TIME NATURE LAT LON WMO_WIND WMO_PRES WMO_AGENCY TRACK_TYPE DIST2LAND LANDFALL IFLAG USA_AGENCY USA_ATCF_ID USA_LAT USA_LON USA_RECORD USA_STATUS USA_WIND USA_PRES USA_SSHS USA_R34_NE USA_R34_SE USA_R34_SW USA_R34_NW USA_R50_NE USA_R50_SE USA_R50_SW USA_R50_NW USA_R64_NE USA_R64_SE USA_R64_SW USA_R64_NW USA_POCI USA_ROCI USA_RMW USA_EYE TOKYO_LAT TOKYO_LON TOKYO_GRADE TOKYO_WIND TOKYO_PRES TOKYO_R50_DIR TOKYO_R50_LONG TOKYO_R50_SHORT TOKYO_R30_DIR TOKYO_R30_LONG TOKYO_R30_SHORT TOKYO_LAND CMA_LAT CMA_LON CMA_CAT CMA_WIND CMA_PRES HKO_LAT HKO_LON HKO_CAT HKO_WIND HKO_PRES NEWDELHI_LAT NEWDELHI_LON NEWDELHI_GRADE NEWDELHI_WIND NEWDELHI_PRES NEWDELHI_CI NEWDELHI_DP NEWDELHI_POCI REUNION_LAT REUNION_LON REUNION_TYPE REUNION_WIND REUNION_PRES REUNION_TNUM REUNION_CI REUNION_RMW REUNION_R34_NE REUNION_R34_SE REUNION_R34_SW REUNION_R34_NW REUNION_R50_NE REUNION_R50_SE REUNION_R50_SW REUNION_R50_NW REUNION_R64_NE REUNION_R64_SE REUNION_R64_SW REUNION_R64_NW BOM_LAT BOM_LON BOM_TYPE BOM_WIND BOM_PRES BOM_TNUM BOM_CI BOM_RMW BOM_R34_NE BOM_R34_SE BOM_R34_SW BOM_R34_NW BOM_R50_NE BOM_R50_SE BOM_R50_SW BOM_R50_NW BOM_R64_NE BOM_R64_SE BOM_R64_SW BOM_R64_NW BOM_ROCI BOM_POCI BOM_EYE BOM_POS_METHOD BOM_PRES_METHOD NADI_LAT NADI_LON NADI_CAT NADI_WIND NADI_PRES WELLINGTON_LAT WELLINGTON_LON WELLINGTON_WIND WELLINGTON_PRES DS824_LAT DS824_LON DS824_STAGE DS824_WIND DS824_PRES TD9636_LAT TD9636_LON TD9636_STAGE TD9636_WIND TD9636_PRES TD9635_LAT TD9635_LON TD9635_WIND TD9635_PRES TD9635_ROCI NEUMANN_LAT NEUMANN_LON NEUMANN_CLASS NEUMANN_WIND NEUMANN_PRES MLC_LAT MLC_LON MLC_CLASS MLC_WIND MLC_PRES USA_GUST BOM_GUST BOM_GUST_PER REUNION_GUST REUNION_GUST_PER USA_SEAHGT USA_SEARAD_NE USA_SEARAD_SE USA_SEARAD_SW USA_SEARAD_NW STORM_SPEED STORM_DIR
1971233N12313 1971 96 NA NA DORIA 1971-08-20 12:00:00 TS 11.5000 -47.0000 25 hurdat_atl main 935 901 O_____________ hurdat_atl AL091971 11.5000 -47.0000 TD 25 -1 10 276
1971233N12313 1971 96 NA NA DORIA 1971-08-20 15:00:00 TS 11.5502 -47.5000 main 910 877 P_____________ AL091971 11.5502 -47.5000 TD 27 -1 10 276
1971233N12313 1971 96 NA NA DORIA 1971-08-20 18:00:00 TS 11.6000 -48.0000 30 hurdat_atl main 877 847 O_____________ hurdat_atl AL091971 11.6000 -48.0000 TD 30 -1 10 276
1971233N12313 1971 96 NA NA DORIA 1971-08-20 21:00:00 TS 11.6499 -48.5000 main 847 828 P_____________ AL091971 11.6499 -48.5000 TD 30 -1 10 276
1971233N12313 1971 96 NA NA DORIA 1971-08-21 00:00:00 TS 11.7000 -49.0000 30 hurdat_atl main 828 803 O_____________ hurdat_atl AL091971 11.7000 -49.0000 TD 30 -1 10 275
1971233N12313 1971 96 NA NA DORIA 1971-08-21 03:00:00 TS 11.7424 -49.5001 main 803 790 P_____________ AL091971 11.7424 -49.5001 TD 30 -1 10 276
1971233N12313 1971 96 NA NA DORIA 1971-08-21 06:00:00 TS 11.8000 -50.0000 30 hurdat_atl main 790 778 O_____________ hurdat_atl AL091971 11.8000 -50.0000 TD 30 -1 10 279
1971233N12313 1971 96 NA NA DORIA 1971-08-21 09:00:00 TS 11.8923 -50.4850 main 781 768 P_____________ AL091971 11.8923 -50.4850 TD 30 -1 10 282
1971233N12313 1971 96 NA NA DORIA 1971-08-21 12:00:00 TS 12.0000 -51.0000 30 hurdat_atl main 768 749 O_____________ hurdat_atl AL091971 12.0000 -51.0000 TD 30 -1 11 279
1971233N12313 1971 96 NA NA DORIA 1971-08-21 15:00:00 TS 12.0700 -51.5852 main 750 735 P_____________ AL091971 12.0700 -51.5852 TD 30 -1 12 280
1971233N12313 1971 96 NA NA DORIA 1971-08-21 18:00:00 TS 12.2000 -52.2000 30 hurdat_atl main 739 735 O_____________ hurdat_atl AL091971 12.2000 -52.2000 TD 30 -1 12 289
1971233N12313 1971 96 NA NA DORIA 1971-08-21 21:00:00 TS 12.4848 -52.7849 main 755 752 P_____________ AL091971 12.4848 -52.7849 TD 30 -1 13 297
1971233N12313 1971 96 NA NA DORIA 1971-08-22 00:00:00 TS 12.8000 -53.4000 30 hurdat_atl main 777 775 O_____________ hurdat_atl AL091971 12.8000 -53.4000 TD 30 -1 14 291
1971233N12313 1971 96 NA NA DORIA 1971-08-22 03:00:00 TS 12.9850 -54.1004 main 775 730 P_____________ AL091971 12.9850 -54.1004 TD 30 -1 14 286
1971233N12313 1971 96 NA NA DORIA 1971-08-22 06:00:00 TS 13.2000 -54.8000 30 hurdat_atl main 730 685 O_____________ hurdat_atl AL091971 13.2000 -54.8000 TD 30 -1 14 295
1971233N12313 1971 96 NA NA DORIA 1971-08-22 09:00:00 TS 13.5696 -55.3927 main 690 657 P_____________ AL091971 13.5696 -55.3927 TD 27 -1 14 304
1971233N12313 1971 96 NA NA DORIA 1971-08-22 12:00:00 TS 14.0000 -56.0000 25 hurdat_atl main 657 624 O_____________ hurdat_atl AL091971 14.0000 -56.0000 TD 25 -1 15 302
1971233N12313 1971 96 NA NA DORIA 1971-08-22 15:00:00 TS 14.3925 -56.7277 main 624 594 P_____________ AL091971 14.3925 -56.7277 TD 25 -1 17 299
1971233N12313 1971 96 NA NA DORIA 1971-08-22 18:00:00 TS 14.8000 -57.5000 25 hurdat_atl main 595 584 O_____________ hurdat_atl AL091971 14.8000 -57.5000 TD 25 -1 17 301
1971233N12313 1971 96 NA NA DORIA 1971-08-22 21:00:00 TS 15.2495 -58.2278 main 588 587 P_____________ AL091971 15.2495 -58.2278 TD 25 -1 17 302
1971233N12313 1971 96 NA NA DORIA 1971-08-23 00:00:00 TS 15.7000 -59.0000 25 hurdat_atl main 600 596 O_____________ hurdat_atl AL091971 15.7000 -59.0000 TD 25 -1 18 298
1971233N12313 1971 96 NA NA DORIA 1971-08-23 03:00:00 TS 16.1076 -59.8927 main 616 543 P_____________ AL091971 16.1076 -59.8927 TD 25 -1 19 295
1971233N12313 1971 96 NA CS DORIA 1971-08-23 06:00:00 TS 16.5000 -60.8000 25 hurdat_atl main 543 448 O_____________ hurdat_atl AL091971 16.5000 -60.8000 TD 25 -1 18 296
1971233N12313 1971 96 NA CS DORIA 1971-08-23 09:00:00 TS 16.9070 -61.6153 main 448 353 P_____________ AL091971 16.9070 -61.6153 TD 25 -1 17 298
1971233N12313 1971 96 NA CS DORIA 1971-08-23 12:00:00 TS 17.3000 -62.4000 25 hurdat_atl main 353 262 O_____________ hurdat_atl AL091971 17.3000 -62.4000 TD 25 -1 17 296
1971233N12313 1971 96 NA CS DORIA 1971-08-23 15:00:00 TS 17.6648 -63.2152 main 260 170 P_____________ AL091971 17.6648 -63.2152 TD 25 -1 17 295
1971233N12313 1971 96 NA CS DORIA 1971-08-23 18:00:00 TS 18.0000 -64.0000 25 hurdat_atl main 170 95 O_____________ hurdat_atl AL091971 18.0000 -64.0000 TD 25 -1 16 294
1971233N12313 1971 96 NA CS DORIA 1971-08-23 21:00:00 TS 18.3070 -64.7079 main 95 30 P_____________ AL091971 18.3070 -64.7079 TD 25 -1 15 294
1971233N12313 1971 96 NA CS DORIA 1971-08-24 00:00:00 TS 18.6000 -65.4000 25 hurdat_atl main 30 24 O_____________ hurdat_atl AL091971 18.6000 -65.4000 TD 25 -1 15 293
1971233N12313 1971 96 NA NA DORIA 1971-08-24 03:00:00 TS 18.8999 -66.1502 main 55 55 P_____________ AL091971 18.8999 -66.1502 TD 25 -1 15 293
1971233N12313 1971 96 NA NA DORIA 1971-08-24 06:00:00 TS 19.2000 -66.9000 25 hurdat_atl main 89 89 O_____________ hurdat_atl AL091971 19.2000 -66.9000 TD 25 -1 15 294
1971233N12313 1971 96 NA NA DORIA 1971-08-24 09:00:00 TS 19.4996 -67.6003 main 124 109 P_____________ AL091971 19.4996 -67.6003 TD 27 -1 15 294
1971233N12313 1971 96 NA NA DORIA 1971-08-24 12:00:00 TS 19.8000 -68.3000 30 hurdat_atl main 113 88 O_____________ hurdat_atl AL091971 19.8000 -68.3000 TD 30 -1 15 294
1971233N12313 1971 96 NA NA DORIA 1971-08-24 15:00:00 TS 20.1000 -69.0651 main 91 88 P_____________ AL091971 20.1000 -69.0651 TD 30 -1 15 293
1971233N12313 1971 96 NA NA DORIA 1971-08-24 18:00:00 TS 20.4000 -69.8000 30 hurdat_atl main 91 90 O_____________ hurdat_atl AL091971 20.4000 -69.8000 TD 30 -1 14 295
1971233N12313 1971 96 NA NA DORIA 1971-08-24 21:00:00 TS 20.6845 -70.4230 main 102 100 P_____________ AL091971 20.6845 -70.4230 TD 30 -1 13 298
1971233N12313 1971 96 NA NA DORIA 1971-08-25 00:00:00 TS 21.0000 -71.0000 30 hurdat_atl main 134 134 O_____________ hurdat_atl AL091971 21.0000 -71.0000 TD 30 -1 13 302
1971233N12313 1971 96 NA NA DORIA 1971-08-25 03:00:00 TS 21.3924 -71.6149 main 146 106 P_____________ AL091971 21.3924 -71.6149 TD 30 -1 14 306
1971233N12313 1971 96 NA NA DORIA 1971-08-25 06:00:00 TS 21.8000 -72.2000 30 hurdat_atl main 106 98 O_____________ hurdat_atl AL091971 21.8000 -72.2000 TD 30 -1 13 307
1971233N12313 1971 96 NA NA DORIA 1971-08-25 09:00:00 TS 22.1572 -72.7154 main 116 113 P_____________ AL091971 22.1572 -72.7154 TD 30 -1 12 307
1971233N12313 1971 96 NA NA DORIA 1971-08-25 12:00:00 TS 22.5000 -73.2000 30 hurdat_atl main 145 145 O_____________ hurdat_atl AL091971 22.5000 -73.2000 TD 30 -1 11 306
1971233N12313 1971 96 NA NA DORIA 1971-08-25 15:00:00 TS 22.8274 -73.7079 main 186 186 P_____________ AL091971 22.8274 -73.7079 TD 30 -1 12 307
1971233N12313 1971 96 NA NA DORIA 1971-08-25 18:00:00 TS 23.2000 -74.2000 30 hurdat_atl main 240 240 O_____________ hurdat_atl AL091971 23.2000 -74.2000 TD 30 -1 12 313
1971233N12313 1971 96 NA NA DORIA 1971-08-25 21:00:00 TS 23.6625 -74.6874 main 308 265 P_____________ AL091971 23.6625 -74.6874 TD 27 -1 13 320
1971233N12313 1971 96 NA NA DORIA 1971-08-26 00:00:00 TS 24.2000 -75.1000 25 hurdat_atl main 265 242 O_____________ hurdat_atl AL091971 24.2000 -75.1000 TD 25 -1 13 331
1971233N12313 1971 96 NA NA DORIA 1971-08-26 03:00:00 TS 24.7696 -75.3585 main 234 228 P_____________ AL091971 24.7696 -75.3585 TD 25 -1 13 339
1971233N12313 1971 96 NA NA DORIA 1971-08-26 06:00:00 TS 25.4000 -75.6000 25 hurdat_atl main 234 224 O_____________ hurdat_atl AL091971 25.4000 -75.6000 TD 25 -1 14 336
1971233N12313 1971 96 NA NA DORIA 1971-08-26 09:00:00 TS 26.0852 -75.9922 main 229 226 P_____________ AL091971 26.0852 -75.9922 TD 27 -1 16 333
1971233N12313 1971 96 NA NA DORIA 1971-08-26 12:00:00 TS 26.8000 -76.4000 30 hurdat_atl main 248 248 O_____________ hurdat_atl AL091971 26.8000 -76.4000 TD 30 -1 16 335
1971233N12313 1971 96 NA NA DORIA 1971-08-26 15:00:00 TS 27.5300 -76.7449 main 297 297 P_____________ AL091971 27.5300 -76.7449 TD 30 -1 15 339
1971233N12313 1971 96 NA NA DORIA 1971-08-26 18:00:00 TS 28.2000 -77.0000 30 1008 hurdat_atl main 333 328 O_____________ hurdat_atl AL091971 28.2000 -77.0000 TD 30 1008 -1 12 343
1971233N12313 1971 96 NA NA DORIA 1971-08-26 21:00:00 TS 28.6699 -77.1455 main 332 322 P_____________ AL091971 28.6699 -77.1455 TD 35 1007 0 10 350
1971233N12313 1971 96 NA NA DORIA 1971-08-27 00:00:00 TS 29.2000 -77.2000 40 1006 hurdat_atl main 330 330 O_____________ hurdat_atl AL091971 29.2000 -77.2000 TS 40 1006 0 14 358
1971233N12313 1971 96 NA NA DORIA 1971-08-27 03:00:00 TS 30.0400 -77.2153 main 360 312 P_____________ AL091971 30.0400 -77.2153 TS 42 1002 0 18 1
1971233N12313 1971 96 NA NA DORIA 1971-08-27 06:00:00 TS 31.0000 -77.2000 45 999 hurdat_atl main 304 243 O_____________ hurdat_atl AL091971 31.0000 -77.2000 TS 45 999 0 19 0
1971233N12313 1971 96 NA NA DORIA 1971-08-27 09:00:00 TS 31.8850 -77.2290 main 235 153 P_____________ AL091971 31.8850 -77.2290 TS 47 998 0 18 1
1971233N12313 1971 96 NA NA DORIA 1971-08-27 12:00:00 TS 32.8000 -77.2000 50 998 hurdat_atl main 143 85 O_____________ hurdat_atl AL091971 32.8000 -77.2000 TS 50 998 0 19 5
1971233N12313 1971 96 NA NA DORIA 1971-08-27 15:00:00 TS 33.8076 -77.0235 main 85 0 P_____________ AL091971 33.8076 -77.0235 TS 52 993 0 20 9
1971233N12313 1971 96 NA NA DORIA 1971-08-27 18:00:00 TS 34.8000 -76.8000 55 989 hurdat_atl main 0 0 O_____________ hurdat_atl AL091971 34.8000 -76.8000 TS 55 989 0 19 8
1971233N12313 1971 96 NA NA DORIA 1971-08-27 21:00:00 TS 35.6494 -76.7067 main 0 0 P_____________ AL091971 35.6494 -76.7067 TS 55 990 0 17 8
1971233N12313 1971 96 NA NA DORIA 1971-08-28 00:00:00 TS 36.5000 -76.5000 55 hurdat_atl main 0 0 I_____________ hurdat_atl AL091971 36.5000 -76.5000 TS 55 991 0 19 18
1971233N12313 1971 96 NA NA DORIA 1971-08-28 03:00:00 TS 37.4251 -75.9957 main 8 0 P_____________ AL091971 37.4251 -75.9957 TS 52 992 0 22 25
1971233N12313 1971 96 NA NA DORIA 1971-08-28 06:00:00 TS 38.5000 -75.3000 50 993 hurdat_atl main 0 0 O_____________ hurdat_atl AL091971 38.5000 -75.3000 TS 50 993 0 26 25
1971233N12313 1971 96 NA NA DORIA 1971-08-28 09:00:00 TS 39.8047 -74.5513 main 0 0 P_____________ AL091971 39.8047 -74.5513 TS 47 995 0 30 24
1971233N12313 1971 96 NA NA DORIA 1971-08-28 12:00:00 TS 41.2000 -73.7000 45 997 hurdat_atl main 0 0 O_____________ hurdat_atl AL091971 41.2000 -73.7000 TS 45 997 0 30 26
1971233N12313 1971 96 NA NA DORIA 1971-08-28 15:00:00 TS 42.5373 -72.7640 main 0 0 P_____________ AL091971 42.5373 -72.7640 TS 45 0 30 28
1971233N12313 1971 96 NA NA DORIA 1971-08-28 18:00:00 TS 43.8000 -71.8000 45 hurdat_atl main 0 0 O_____________ hurdat_atl AL091971 43.8000 -71.8000 TS 45 0 28 29
1971233N12313 1971 96 NA NA DORIA 1971-08-28 21:00:00 TS 44.9436 -70.9022 main 0 0 P_____________ AL091971 44.9436 -70.9022 TS 40 0 25 30
1971233N12313 1971 96 NA NA DORIA 1971-08-29 00:00:00 ET 46.0000 -70.0000 35 hurdat_atl main 0 0 O_____________ hurdat_atl AL091971 46.0000 -70.0000 EX 35 -4 24 32
1971233N12313 1971 96 NA NA DORIA 1971-08-29 03:00:00 ET 47.0122 -69.0312 main 0 0 P_____________ AL091971 47.0122 -69.0312 EX 35 -4 24 34
1971233N12313 1971 96 NA NA DORIA 1971-08-29 06:00:00 ET 48.0000 -68.0000 35 hurdat_atl main 0 O_____________ hurdat_atl AL091971 48.0000 -68.0000 EX 35 -4 24 35

About IBTrACS Database

This database is a web-friendly format of International Best Track Archive for Climate Stewardship (IBTrACS), a global best track data archive curated by NOAA dating back to 1842.

Updated: 2021-10-21